Time;durP1;ratioP1;P1;durP2;ratioP2;P2;SDS_P1;SDS_P2;PMS_P1;PMS_P2;Temp;Humidity;BMP_temperature;BMP_pressure;BME280_temperature;BME280_humidity;BME280_pressure;Samples;Min_cycle;Max_cycle;Signal;HPM_P1;HPM_P2
2022/04/06 00:00:05;;;;;;;6.10;5.60;;;;;;;13.90;53.69;96814.13;5122292;27;20429;-70
2022/04/06 00:02:30;;;;;;;8.80;6.10;;;;;;;13.92;53.93;96817.41;5120320;27;20200;-70
2022/04/06 00:04:55;;;;;;;5.97;5.37;;;;;;;13.96;53.75;96812.59;5121485;27;20426;-71
2022/04/06 00:07:21;;;;;;;6.10;5.50;;;;;;;13.85;53.68;96811.25;5131349;27;20200;-71
2022/04/06 00:09:46;;;;;;;5.60;5.10;;;;;;;13.88;53.89;96800.31;5125559;27;20176;-71
2022/04/06 00:12:12;;;;;;;8.17;6.03;;;;;;;13.92;53.76;96806.88;5103872;27;20178;-72
2022/04/06 00:14:38;;;;;;;5.70;5.20;;;;;;;13.93;53.74;96805.88;5116552;27;20176;-71
2022/04/06 00:17:05;;;;;;;6.17;5.60;;;;;;;13.88;54.06;96799.53;5125561;27;20277;-71
2022/04/06 00:19:34;;;;;;;6.30;5.30;;;;;;;13.93;54.03;96802.41;5123499;27;20181;-70
2022/04/06 00:22:00;;;;;;;5.83;5.30;;;;;;;13.95;54.00;96793.34;5101151;27;20484;-71
2022/04/06 00:24:26;;;;;;;5.90;5.30;;;;;;;13.93;53.89;96792.69;5114422;27;20463;-70
2022/04/06 00:26:52;;;;;;;6.07;5.23;;;;;;;13.96;53.99;96794.16;5116489;27;20453;-70
2022/04/06 00:29:17;;;;;;;5.80;4.80;;;;;;;13.96;54.09;96787.06;5118591;27;20428;-68
2022/04/06 00:31:43;;;;;;;5.50;5.00;;;;;;;14.03;54.17;96789.78;5100462;27;20203;-69
2022/04/06 00:34:08;;;;;;;5.67;5.00;;;;;;;13.97;53.99;96785.25;5115218;27;20200;-70
2022/04/06 00:36:34;;;;;;;5.97;5.37;;;;;;;13.92;54.15;96785.00;5122018;27;20288;-69
2022/04/06 00:38:59;;;;;;;5.90;5.40;;;;;;;13.89;54.48;96783.53;5106085;27;20204;-69
2022/04/06 00:41:25;;;;;;;7.10;5.53;;;;;;;13.93;54.06;96776.91;5113233;27;20188;-69
2022/04/06 00:44:16;;;;;;;6.10;5.50;;;;;;;13.78;54.66;96782.19;5115683;27;20312;-69
2022/04/06 00:46:43;;;;;;;5.60;5.07;;;;;;;13.84;54.73;96778.00;5107524;27;20209;-69
2022/04/06 00:49:14;;;;;;;7.33;5.97;;;;;;;13.89;54.74;96773.00;5104041;28;20442;-70
2022/04/06 00:51:45;;;;;;;5.77;5.00;;;;;;;13.75;54.89;96772.03;5117067;27;20782;-68
2022/04/06 00:54:13;;;;;;;6.50;5.80;;;;;;;13.83;54.87;96771.09;5107762;27;20437;-69
2022/04/06 00:56:39;;;;;;;7.80;5.30;;;;;;;13.88;54.65;96768.72;5110632;27;20450;-71
2022/04/06 00:59:05;;;;;;;6.70;5.80;;;;;;;13.79;54.99;96764.56;5111570;27;20443;-69
2022/04/06 01:01:31;;;;;;;5.80;5.20;;;;;;;13.85;54.84;96761.22;5065213;27;20431;-70
2022/04/06 01:03:57;;;;;;;5.63;5.03;;;;;;;13.87;55.05;96766.28;5099300;28;20209;-70
2022/04/06 01:06:23;;;;;;;6.33;5.60;;;;;;;13.81;54.93;96762.56;5127671;27;20271;-70
2022/04/06 01:08:49;;;;;;;5.90;5.33;;;;;;;13.77;55.43;96758.66;5102051;28;20197;-70
2022/04/06 01:11:15;;;;;;;5.80;5.07;;;;;;;13.78;55.51;96752.38;5094193;28;20951;-69
2022/04/06 01:13:41;;;;;;;5.77;5.27;;;;;;;13.83;55.26;96757.94;5112576;27;20466;-70
2022/04/06 01:16:07;;;;;;;5.30;4.90;;;;;;;13.82;55.23;96753.66;5105186;27;20711;-70
2022/04/06 01:18:32;;;;;;;7.90;5.73;;;;;;;13.79;55.55;96759.28;5103814;27;20447;-68
2022/04/06 01:20:59;;;;;;;6.80;5.37;;;;;;;13.77;55.52;96754.22;5103082;27;20247;-69
2022/04/06 01:23:24;;;;;;;10.20;5.30;;;;;;;13.72;55.50;96750.50;5118012;27;20204;-71
2022/04/06 01:25:50;;;;;;;6.77;5.10;;;;;;;13.78;55.46;96750.59;5103943;27;20420;-70
2022/04/06 01:28:15;;;;;;;5.57;4.93;;;;;;;13.81;55.30;96752.84;5108286;27;20194;-71
2022/04/06 01:30:41;;;;;;;10.53;5.33;;;;;;;13.81;55.61;96752.03;5115625;27;20663;-68
2022/04/06 01:33:06;;;;;;;5.70;5.20;;;;;;;13.85;55.30;96753.31;5113336;27;20259;-68
2022/04/06 01:35:38;;;;;;;6.60;6.00;;;;;;;13.63;55.73;96753.22;5121179;27;20184;-69
2022/04/06 01:38:04;;;;;;;6.07;5.53;;;;;;;13.81;55.52;96747.56;5123725;27;20217;-71
2022/04/06 01:40:30;;;;;;;7.03;5.83;;;;;;;13.79;55.13;96746.97;5121454;27;20441;-73
2022/04/06 01:42:56;;;;;;;7.73;5.67;;;;;;;13.80;55.43;96745.13;5105337;27;20452;-69
2022/04/06 01:45:22;;;;;;;6.27;5.57;;;;;;;13.68;55.83;96744.75;5126116;27;20188;-70
2022/04/06 01:47:47;;;;;;;5.23;4.73;;;;;;;13.80;55.46;96745.13;5127577;27;20969;-69
2022/04/06 01:52:57;;;;;;;5.40;4.90;;;;;;;13.81;55.36;96739.66;5113861;27;20507;-70
2022/04/06 01:55:22;;;;;;;6.20;5.60;;;;;;;13.81;55.16;96741.50;5119919;27;20430;-69
2022/04/06 01:57:49;;;;;;;8.23;5.60;;;;;;;13.75;55.53;96744.84;5123868;27;20196;-69
2022/04/06 02:00:17;;;;;;;5.90;5.40;;;;;;;13.73;55.75;96738.97;5123516;27;20206;-69
2022/04/06 02:02:46;;;;;;;7.13;6.30;;;;;;;13.80;55.59;96738.03;5106935;27;20984;-69
2022/04/06 02:05:12;;;;;;;6.23;5.60;;;;;;;13.81;55.34;96728.31;5116164;27;20430;-70
2022/04/06 02:07:37;;;;;;;6.03;5.43;;;;;;;13.67;55.70;96730.00;5131408;27;20853;-70
2022/04/06 02:10:03;;;;;;;6.70;5.10;;;;;;;13.74;55.32;96727.41;5122998;27;20172;-69
2022/04/06 02:12:29;;;;;;;9.07;5.40;;;;;;;13.62;55.83;96727.88;5121763;27;20757;-69
2022/04/06 02:14:55;;;;;;;6.10;5.50;;;;;;;13.57;56.15;96727.63;5120057;27;20177;-69
2022/04/06 02:17:22;;;;;;;5.90;5.27;;;;;;;13.60;55.82;96724.66;5120465;27;20439;-69
2022/04/06 02:19:48;;;;;;;5.97;5.47;;;;;;;13.53;55.69;96729.00;5130415;27;20204;-70
2022/04/06 02:22:13;;;;;;;6.23;5.63;;;;;;;13.63;55.79;96729.53;5123506;27;20518;-71
2022/04/06 02:24:39;;;;;;;6.57;5.60;;;;;;;13.56;56.32;96728.63;5119576;27;20570;-71
2022/04/06 02:27:06;;;;;;;6.70;5.80;;;;;;;13.62;55.92;96721.81;5119960;27;20284;-71
2022/04/06 02:29:31;;;;;;;6.73;5.60;;;;;;;13.69;55.75;96717.44;5126668;28;20180;-71
2022/04/06 02:31:57;;;;;;;7.17;5.73;;;;;;;13.73;55.56;96723.19;5141621;27;20421;-71
2022/04/06 02:34:22;;;;;;;9.33;6.03;;;;;;;13.78;55.55;96715.53;5122137;27;20221;-71
2022/04/06 02:36:48;;;;;;;6.13;5.53;;;;;;;13.78;55.52;96718.16;5097162;28;20252;-71
2022/04/06 02:39:14;;;;;;;6.90;5.63;;;;;;;13.85;55.41;96716.44;5122891;27;20183;-71
2022/04/06 02:41:39;;;;;;;8.37;5.73;;;;;;;13.84;55.53;96720.06;5119759;28;20195;-71
2022/04/06 02:44:05;;;;;;;5.70;5.20;;;;;;;13.86;55.41;96723.31;5124733;28;20595;-71
2022/04/06 02:46:31;;;;;;;7.40;5.67;;;;;;;13.79;55.55;96711.88;5120757;27;20180;-70
2022/04/06 02:48:57;;;;;;;7.67;6.77;;;;;;;13.79;55.77;96711.88;5125237;28;20410;-71
2022/04/06 02:51:22;;;;;;;5.90;5.40;;;;;;;13.76;55.52;96712.25;5117293;28;20504;-71
2022/04/06 02:53:48;;;;;;;7.33;5.57;;;;;;;13.78;55.46;96715.53;5122616;28;20664;-71
2022/04/06 02:56:14;;;;;;;7.23;5.70;;;;;;;13.71;55.79;96712.00;5128011;27;20181;-71
2022/04/06 02:58:40;;;;;;;9.03;6.33;;;;;;;13.62;55.98;96706.81;5118401;27;20649;-70
2022/04/06 03:01:06;;;;;;;7.23;6.07;;;;;;;13.66;56.15;96707.28;5111329;27;20430;-68
2022/04/06 03:03:31;;;;;;;6.80;6.10;;;;;;;13.79;55.58;96706.63;5097631;28;20296;-70
2022/04/06 03:05:57;;;;;;;6.50;5.60;;;;;;;13.86;55.72;96696.97;5125395;28;20181;-70
2022/04/06 03:08:22;;;;;;;7.10;5.83;;;;;;;13.74;55.68;96688.75;5131268;27;20203;-70
2022/04/06 03:10:48;;;;;;;7.60;6.50;;;;;;;13.80;55.53;96687.19;5123101;27;20881;-70
2022/04/06 03:13:14;;;;;;;7.93;5.87;;;;;;;13.84;55.43;96680.56;5111395;28;20169;-70
2022/04/06 03:15:39;;;;;;;6.70;6.00;;;;;;;13.85;55.22;96682.19;5093027;28;20177;-69
2022/04/06 03:18:05;;;;;;;6.77;5.83;;;;;;;13.75;55.30;96679.84;5110877;28;20209;-70
2022/04/06 03:20:31;;;;;;;7.37;6.30;;;;;;;13.69;55.72;96687.66;5110513;28;20181;-71
2022/04/06 03:22:56;;;;;;;7.23;6.30;;;;;;;13.77;55.29;96683.13;5111420;28;20348;-71
2022/04/06 03:25:22;;;;;;;9.10;6.10;;;;;;;13.83;55.41;96671.03;5111335;28;20209;-71
2022/04/06 03:27:47;;;;;;;7.40;6.30;;;;;;;13.89;55.25;96678.16;5111877;28;20309;-71
2022/04/06 03:30:13;;;;;;;9.97;6.77;;;;;;;13.90;55.24;96671.09;5112540;28;20536;-70
2022/04/06 03:32:39;;;;;;;7.83;6.47;;;;;;;13.88;55.23;96668.63;5111459;28;20177;-71
2022/04/06 03:35:06;;;;;;;6.93;6.23;;;;;;;13.81;55.24;96667.75;5114307;28;20173;-70
2022/04/06 03:37:31;;;;;;;7.03;6.33;;;;;;;13.76;55.43;96665.69;5121749;27;20994;-70
2022/04/06 03:39:57;;;;;;;7.07;6.07;;;;;;;13.81;55.18;96662.50;5113967;28;20419;-70
2022/04/06 03:42:23;;;;;;;7.97;6.30;;;;;;;13.80;55.46;96666.13;5131297;27;20599;-69
2022/04/06 03:44:49;;;;;;;7.80;6.33;;;;;;;13.83;55.57;96665.75;5134713;27;20176;-70
2022/04/06 03:47:15;;;;;;;8.90;6.30;;;;;;;13.84;55.07;96662.13;5134353;27;20850;-68
2022/04/06 03:49:40;;;;;;;7.17;6.47;;;;;;;13.80;55.31;96666.13;5134090;27;20417;-69
2022/04/06 03:52:06;;;;;;;6.10;5.50;;;;;;;13.84;55.05;96662.13;5124012;27;20177;-71
2022/04/06 03:54:32;;;;;;;6.67;6.00;;;;;;;13.83;55.24;96656.03;5116061;27;20189;-69
2022/04/06 03:56:57;;;;;;;6.80;6.10;;;;;;;13.83;55.41;96660.50;5124003;27;20681;-70
2022/04/06 03:59:29;;;;;;;7.07;6.37;;;;;;;13.74;55.42;96656.31;5131076;27;20180;-70
2022/04/06 04:01:56;;;;;;;6.10;5.47;;;;;;;13.84;55.40;96662.13;5100098;27;20180;-69
2022/04/06 04:04:21;;;;;;;7.13;5.67;;;;;;;13.86;55.08;96659.28;5116010;27;20474;-71
2022/04/06 04:06:46;;;;;;;8.00;5.97;;;;;;;13.71;55.48;96656.72;5099328;28;20443;-71
2022/04/06 04:09:12;;;;;;;6.87;6.17;;;;;;;13.64;55.91;96648.72;5112771;28;20653;-71
2022/04/06 04:11:37;;;;;;;6.10;5.47;;;;;;;13.69;55.87;96651.59;5113968;28;20208;-70
2022/04/06 04:14:03;;;;;;;6.13;5.60;;;;;;;13.80;55.82;96647.69;5112993;28;20549;-70
2022/04/06 04:16:28;;;;;;;5.43;4.93;;;;;;;13.88;55.58;96646.75;5114174;28;20176;-71
2022/04/06 04:18:54;;;;;;;7.17;5.30;;;;;;;13.94;55.07;96657.34;5113570;28;20203;-71
2022/04/06 04:21:35;;;;;;;6.80;5.20;;;;;;;13.89;55.26;96648.38;5113980;28;20208;-71
2022/04/06 04:24:04;;;;;;;5.37;4.93;;;;;;;13.93;55.57;96644.34;5111847;28;20253;-70
2022/04/06 04:26:31;;;;;;;7.30;5.37;;;;;;;13.93;55.44;96647.81;5113625;28;20421;-70
2022/04/06 04:28:57;;;;;;;5.80;5.17;;;;;;;13.84;55.46;96648.94;5113158;28;20414;-70
2022/04/06 04:31:23;;;;;;;5.97;4.90;;;;;;;13.85;55.62;96637.41;5111841;28;21039;-70
2022/04/06 04:33:49;;;;;;;5.87;5.37;;;;;;;13.86;55.44;96644.28;5113291;28;20188;-71
2022/04/06 04:36:16;;;;;;;6.77;6.07;;;;;;;13.83;55.72;96644.69;5116210;27;20430;-70
2022/04/06 04:38:42;;;;;;;5.80;5.17;;;;;;;13.82;55.98;96638.59;5103380;28;20466;-71
2022/04/06 04:41:08;;;;;;;6.57;4.97;;;;;;;13.82;55.63;96633.31;5112744;28;20415;-71
2022/04/06 04:43:34;;;;;;;5.93;5.33;;;;;;;13.91;55.58;96641.13;5111735;28;20483;-70
2022/04/06 04:46:00;;;;;;;8.00;5.40;;;;;;;13.85;55.55;96636.59;5112213;28;20465;-70
2022/04/06 04:48:26;;;;;;;6.53;5.93;;;;;;;13.75;55.68;96642.16;5096142;27;20479;-69
2022/04/06 04:50:51;;;;;;;5.83;5.33;;;;;;;13.80;55.93;96630.06;5122583;27;20181;-73
2022/04/06 04:53:17;;;;;;;6.43;5.77;;;;;;;13.81;55.79;96638.78;5098543;27;20181;-71
2022/04/06 04:55:42;;;;;;;6.50;5.90;;;;;;;13.81;55.72;96631.69;5121054;27;20181;-70
2022/04/06 04:58:08;;;;;;;6.23;5.10;;;;;;;13.87;55.64;96632.75;5119766;27;20209;-71
2022/04/06 05:00:34;;;;;;;6.40;5.40;;;;;;;13.93;55.51;96628.56;5123251;27;20545;-71
2022/04/06 05:03:00;;;;;;;5.40;4.90;;;;;;;13.96;55.48;96634.28;5105063;27;20261;-70
2022/04/06 05:05:25;;;;;;;6.57;5.80;;;;;;;13.93;55.56;96629.38;5110016;27;20816;-70
2022/04/06 05:07:51;;;;;;;6.13;5.53;;;;;;;13.95;55.46;96627.38;5121113;27;20193;-71
2022/04/06 05:10:17;;;;;;;6.90;5.17;;;;;;;14.00;55.30;96623.34;5112358;28;20242;-70
2022/04/06 05:12:45;;;;;;;5.80;5.20;;;;;;;14.02;55.24;96626.63;5111960;28;20646;-70
2022/04/06 05:15:12;;;;;;;7.13;5.67;;;;;;;14.05;55.42;96628.88;5105246;28;20185;-70
2022/04/06 05:17:38;;;;;;;5.90;5.33;;;;;;;14.08;55.44;96628.50;5111847;28;20443;-70
2022/04/06 05:20:06;;;;;;;6.07;5.27;;;;;;;14.10;55.09;96619.41;5112085;28;20430;-70
2022/04/06 05:22:32;;;;;;;6.67;5.87;;;;;;;14.06;55.27;96622.63;5111669;28;20523;-70
2022/04/06 05:24:57;;;;;;;7.03;5.43;;;;;;;13.96;55.29;96631.66;5114585;28;20426;-70
2022/04/06 05:27:23;;;;;;;6.23;5.63;;;;;;;14.03;55.46;96625.63;5114515;28;20209;-70
2022/04/06 05:29:48;;;;;;;6.73;6.13;;;;;;;14.02;55.32;96626.63;5113465;28;20181;-69
2022/04/06 05:32:14;;;;;;;6.30;5.70;;;;;;;14.03;55.41;96634.34;5115345;28;20209;-70
2022/04/06 05:34:39;;;;;;;6.47;5.87;;;;;;;13.93;55.38;96623.28;5116196;28;20177;-70
2022/04/06 05:37:05;;;;;;;7.93;6.37;;;;;;;13.88;55.38;96628.31;5124154;27;20209;-70
2022/04/06 05:39:30;;;;;;;7.10;6.40;;;;;;;13.91;55.62;96622.69;5114107;28;20263;-71
2022/04/06 05:41:56;;;;;;;6.97;6.30;;;;;;;13.93;55.41;96618.00;5117005;28;20196;-70
2022/04/06 05:44:22;;;;;;;7.33;6.10;;;;;;;13.98;55.46;96631.44;5116648;28;20299;-71
2022/04/06 05:46:47;;;;;;;7.80;6.67;;;;;;;13.91;55.46;96625.31;5112457;28;20450;-70
2022/04/06 05:49:13;;;;;;;7.20;5.83;;;;;;;13.91;55.59;96620.84;5115270;28;20173;-71
2022/04/06 05:51:38;;;;;;;10.10;7.40;;;;;;;13.97;55.42;96616.66;5120247;27;20188;-69
2022/04/06 05:54:03;;;;;;;7.33;6.40;;;;;;;13.94;55.25;96620.47;5120457;27;20188;-70
2022/04/06 05:56:29;;;;;;;9.07;6.87;;;;;;;14.03;55.53;96622.97;5110774;28;20936;-69
2022/04/06 05:58:55;;;;;;;8.90;6.90;;;;;;;14.04;55.27;96625.44;5111516;28;20241;-70
2022/04/06 06:01:21;;;;;;;7.67;6.97;;;;;;;14.07;55.20;96630.31;5107786;28;20435;-71
2022/04/06 06:03:47;;;;;;;10.63;6.43;;;;;;;14.05;54.95;96631.53;5118815;27;20477;-70
2022/04/06 06:06:12;;;;;;;8.67;6.33;;;;;;;14.08;55.24;96620.59;5111995;28;20185;-70
2022/04/06 06:08:38;;;;;;;7.20;6.50;;;;;;;13.91;55.74;96625.31;5113320;27;20205;-70
2022/04/06 06:11:04;;;;;;;10.07;6.70;;;;;;;13.98;55.56;96626.19;5111120;28;20181;-69
2022/04/06 06:13:31;;;;;;;6.80;6.10;;;;;;;14.02;55.41;96626.63;5111740;28;20253;-70
2022/04/06 06:15:56;;;;;;;6.90;6.20;;;;;;;14.02;55.13;96629.25;5112036;28;20449;-70
2022/04/06 06:18:24;;;;;;;7.20;6.50;;;;;;;14.07;55.22;96630.31;5111375;28;20859;-70
2022/04/06 06:20:49;;;;;;;7.97;7.17;;;;;;;14.00;55.33;96624.19;5111449;28;20226;-70
2022/04/06 06:23:15;;;;;;;7.83;7.07;;;;;;;13.99;55.30;96622.56;5111440;28;20958;-70
2022/04/06 06:25:41;;;;;;;7.50;6.67;;;;;;;14.06;55.29;96627.88;5111166;28;20188;-70
2022/04/06 06:28:07;;;;;;;11.60;6.37;;;;;;;14.05;55.39;96627.06;5111122;28;20193;-69
2022/04/06 06:30:33;;;;;;;8.27;6.30;;;;;;;13.96;55.56;96636.09;5119487;28;20942;-69
2022/04/06 06:32:58;;;;;;;8.07;6.17;;;;;;;14.07;55.68;96634.78;5111197;28;20508;-69
2022/04/06 06:35:24;;;;;;;6.80;6.20;;;;;;;13.97;55.71;96635.91;5092989;28;20197;-70
2022/04/06 06:37:52;;;;;;;7.60;6.60;;;;;;;14.02;55.63;96629.25;5111445;28;20209;-70
2022/04/06 06:40:19;;;;;;;9.40;6.70;;;;;;;14.11;55.51;96621.03;5107670;28;20839;-70
2022/04/06 06:42:44;;;;;;;6.57;5.67;;;;;;;14.11;55.49;96625.50;5105687;28;20427;-69
2022/04/06 06:45:11;;;;;;;8.00;6.37;;;;;;;14.07;55.48;96625.03;5106968;28;20422;-70
2022/04/06 06:47:37;;;;;;;8.30;5.57;;;;;;;14.14;55.57;96633.00;5111034;28;20220;-70
2022/04/06 06:50:03;;;;;;;8.27;6.53;;;;;;;14.21;55.40;96630.44;5110881;28;20511;-70
2022/04/06 06:52:29;;;;;;;6.70;5.30;;;;;;;14.24;55.33;96624.78;5117326;28;20238;-70
2022/04/06 06:54:55;;;;;;;7.43;6.40;;;;;;;14.15;55.25;96629.38;5110583;28;20458;-71
2022/04/06 06:57:20;;;;;;;6.43;5.83;;;;;;;14.19;55.45;96628.00;5110833;28;20292;-70
2022/04/06 06:59:45;;;;;;;21.33;6.53;;;;;;;14.11;55.33;96621.03;5119392;28;20189;-70
2022/04/06 07:02:11;;;;;;;6.37;5.00;;;;;;;14.01;55.78;96625.81;5111165;28;20185;-70
2022/04/06 07:04:37;;;;;;;5.80;5.30;;;;;;;14.19;55.24;96622.72;5111247;28;20287;-71
2022/04/06 07:07:03;;;;;;;8.33;5.73;;;;;;;14.23;55.37;96616.09;5110941;28;20292;-70
2022/04/06 07:09:28;;;;;;;7.37;5.50;;;;;;;14.19;55.02;96616.63;5114935;27;20185;-71
2022/04/06 07:11:53;;;;;;;5.70;5.10;;;;;;;14.25;55.41;96615.88;5115183;28;20899;-70
2022/04/06 07:14:20;;;;;;;7.67;5.13;;;;;;;14.29;55.10;96617.94;5114673;28;20187;-70
2022/04/06 07:16:45;;;;;;;9.23;4.70;;;;;;;14.20;55.19;96616.47;5114799;28;20222;-70
2022/04/06 07:19:10;;;;;;;4.80;4.40;;;;;;;14.28;54.88;96610.25;5114685;28;20535;-70
2022/04/06 07:21:36;;;;;;;10.40;4.30;;;;;;;14.20;55.12;96613.00;5114730;28;20208;-70
2022/04/06 07:24:03;;;;;;;4.47;4.10;;;;;;;14.29;54.77;96603.97;5114381;28;20201;-70
2022/04/06 07:26:31;;;;;;;5.07;4.43;;;;;;;14.40;54.47;96607.88;5123116;27;20220;-70
2022/04/06 07:28:57;;;;;;;4.30;4.00;;;;;;;14.37;54.30;96610.91;5120240;27;20971;-70
2022/04/06 07:31:22;;;;;;;5.10;4.27;;;;;;;14.47;54.05;96608.78;5116566;27;20423;-70
2022/04/06 07:33:48;;;;;;;4.60;4.07;;;;;;;14.56;54.01;96606.78;5114485;28;20541;-71
2022/04/06 07:36:13;;;;;;;4.60;3.60;;;;;;;14.62;54.01;96602.59;5114265;28;20180;-70
2022/04/06 07:38:39;;;;;;;4.53;4.00;;;;;;;14.70;53.87;96599.81;5100977;27;20205;-70
2022/04/06 07:41:04;;;;;;;3.63;3.20;;;;;;;14.70;53.67;96611.19;5114262;28;20260;-69
2022/04/06 07:43:30;;;;;;;4.00;3.70;;;;;;;14.70;53.63;96610.38;5113961;28;20193;-70
2022/04/06 07:45:56;;;;;;;3.47;3.17;;;;;;;14.77;53.35;96603.31;5114493;28;20235;-70
2022/04/06 07:48:25;;;;;;;3.47;3.17;;;;;;;14.82;53.23;96590.38;5113978;28;20489;-69
2022/04/06 07:50:51;;;;;;;3.17;2.97;;;;;;;15.00;52.96;96596.94;5116875;27;20184;-70
2022/04/06 07:53:17;;;;;;;3.20;2.70;;;;;;;15.04;52.47;96598.19;5115024;27;20446;-69
2022/04/06 07:55:44;;;;;;;4.93;3.20;;;;;;;15.34;52.19;96601.34;5113251;27;20680;-70
2022/04/06 07:58:10;;;;;;;2.93;2.70;;;;;;;15.57;51.37;96588.84;5130347;27;20882;-70
2022/04/06 08:00:35;;;;;;;2.70;2.50;;;;;;;15.85;51.09;96593.22;5114280;27;20560;-69
2022/04/06 08:03:01;;;;;;;3.53;2.60;;;;;;;16.05;49.91;96590.59;5113495;28;20589;-71
2022/04/06 08:05:27;;;;;;;2.90;2.43;;;;;;;16.26;49.15;96594.84;5114014;27;20185;-70
2022/04/06 08:07:53;;;;;;;2.00;1.90;;;;;;;16.17;49.11;96590.78;5114230;27;20209;-71
2022/04/06 08:10:19;;;;;;;4.07;2.47;;;;;;;16.26;48.53;96600.13;5113774;28;20181;-70
2022/04/06 08:12:46;;;;;;;3.10;2.10;;;;;;;16.27;48.49;96596.47;5121763;27;20915;-70
2022/04/06 08:15:12;;;;;;;2.37;2.17;;;;;;;16.21;48.10;96594.66;5113759;28;20419;-70
2022/04/06 08:17:40;;;;;;;2.77;2.30;;;;;;;16.17;47.89;96596.06;5116621;27;20593;-70
2022/04/06 08:20:08;;;;;;;5.63;2.00;;;;;;;16.13;47.88;96596.47;5117851;27;20419;-71
2022/04/06 08:22:34;;;;;;;2.03;1.93;;;;;;;16.18;48.00;96603.00;5115903;27;20790;-70
2022/04/06 08:24:59;;;;;;;2.07;1.93;;;;;;;16.09;48.80;96590.00;5119604;27;20470;-70
2022/04/06 08:27:27;;;;;;;2.33;2.13;;;;;;;16.03;48.72;96590.78;5113531;28;20204;-70
2022/04/06 08:29:52;;;;;;;3.73;2.40;;;;;;;16.06;48.77;96586.94;5112982;27;20237;-70
2022/04/06 08:32:19;;;;;;;3.53;3.23;;;;;;;16.08;48.88;96593.63;5113085;28;20451;-70
2022/04/06 08:34:45;;;;;;;3.10;2.13;;;;;;;15.94;48.74;96602.56;5113040;28;20180;-71
2022/04/06 08:37:11;;;;;;;3.40;2.00;;;;;;;15.76;48.66;96589.91;5113003;28;20447;-70
2022/04/06 08:39:37;;;;;;;2.30;2.10;;;;;;;15.92;48.28;96600.13;5113203;27;20203;-70
2022/04/06 08:42:02;;;;;;;2.73;2.13;;;;;;;15.99;47.71;96597.50;5113465;28;20411;-70
2022/04/06 08:44:28;;;;;;;1.97;1.53;;;;;;;15.90;47.67;96596.03;5112747;28;20205;-71
2022/04/06 08:46:59;;;;;;;4.20;1.47;;;;;;;16.00;47.57;96590.38;5097969;28;20204;-71
2022/04/06 08:49:25;;;;;;;2.57;1.70;;;;;;;16.08;47.19;96593.63;5108998;27;20180;-70
2022/04/06 08:51:51;;;;;;;2.77;1.50;;;;;;;16.05;47.17;96607.25;5111278;27;20420;-71
2022/04/06 08:54:16;;;;;;;2.40;1.00;;;;;;;16.28;46.58;96598.94;5108229;27;20180;-70
2022/04/06 08:56:42;;;;;;;2.27;1.90;;;;;;;16.28;46.23;96598.94;5112881;28;21001;-71
2022/04/06 08:59:08;;;;;;;1.03;0.93;;;;;;;16.41;45.74;96589.38;5095516;28;20386;-71
2022/04/06 09:01:34;;;;;;;0.90;0.80;;;;;;;16.54;45.57;96585.88;5111584;28;20427;-71
2022/04/06 09:04:00;;;;;;;1.20;0.90;;;;;;;16.64;45.31;96580.19;5112348;28;20211;-71
2022/04/06 09:06:29;;;;;;;1.00;0.70;;;;;;;16.77;45.14;96582.81;5094617;27;20181;-71
2022/04/06 09:08:55;;;;;;;2.30;0.90;;;;;;;16.84;44.00;96582.81;5112949;27;20431;-71
2022/04/06 09:11:20;;;;;;;1.87;0.80;;;;;;;17.00;44.04;96590.34;5112333;27;20433;-70
2022/04/06 09:13:48;;;;;;;1.93;1.20;;;;;;;17.01;43.50;96581.34;5112570;28;20176;-70
2022/04/06 09:16:16;;;;;;;1.00;0.90;;;;;;;17.11;42.85;96593.34;5094331;28;20208;-71
2022/04/06 09:18:48;;;;;;;1.00;0.90;;;;;;;17.12;42.25;96584.38;5112195;27;20537;-71
2022/04/06 09:21:17;;;;;;;3.37;1.10;;;;;;;17.25;42.93;96581.69;5112372;28;20923;-71
2022/04/06 09:23:49;;;;;;;1.27;0.70;;;;;;;17.66;41.75;96577.78;5104257;28;20455;-71
2022/04/06 09:26:19;;;;;;;1.30;1.00;;;;;;;17.76;41.11;96572.03;5120700;27;20423;-71
2022/04/06 09:28:47;;;;;;;1.00;0.70;;;;;;;17.73;41.04;96574.31;5103941;28;20435;-71
2022/04/06 09:31:16;;;;;;;1.30;0.90;;;;;;;17.95;40.99;96570.28;5111734;28;20420;-71
2022/04/06 09:33:44;;;;;;;0.90;0.70;;;;;;;18.19;40.72;96561.78;5104233;28;20773;-71
2022/04/06 09:36:19;;;;;;;3.00;0.70;;;;;;;18.35;39.75;96557.78;5077994;28;20424;-71
2022/04/06 09:38:49;;;;;;;0.90;0.60;;;;;;;18.36;39.04;96560.19;5104172;27;20469;-70
2022/04/06 09:41:15;;;;;;;1.13;0.83;;;;;;;18.30;38.83;96563.72;5111953;28;20923;-71
2022/04/06 09:43:44;;;;;;;1.10;0.70;;;;;;;17.70;39.88;96570.25;5103543;28;20472;-71
2022/04/06 09:49:08;;;;;;;1.00;0.60;;;;;;;18.13;39.33;96555.50;5106754;28;20472;-71
2022/04/06 09:51:34;;;;;;;1.37;0.63;;;;;;;17.95;39.11;96564.19;5118037;27;20448;-71
2022/04/06 09:54:03;;;;;;;2.43;1.00;;;;;;;18.02;39.27;96559.66;5112223;28;20820;-71
2022/04/06 09:56:30;;;;;;;1.23;0.70;;;;;;;18.11;39.30;96557.56;5119906;27;20529;-71
2022/04/06 09:58:56;;;;;;;3.07;0.80;;;;;;;18.11;39.47;96562.88;5111908;28;20454;-71
2022/04/06 10:01:23;;;;;;;2.43;0.73;;;;;;;18.26;39.22;96546.63;5112952;28;20480;-71
2022/04/06 10:03:50;;;;;;;1.00;0.77;;;;;;;18.20;39.12;96553.59;5113131;28;20451;-71
2022/04/06 10:06:16;;;;;;;2.03;0.70;;;;;;;18.29;38.90;96555.97;5094104;28;20477;-69
2022/04/06 10:08:42;;;;;;;1.50;1.40;;;;;;;18.33;38.90;96550.03;5112166;28;21490;-71
2022/04/06 10:11:08;;;;;;;1.10;1.00;;;;;;;18.18;39.52;96544.25;5105423;28;20213;-70
2022/04/06 10:13:33;;;;;;;1.40;0.60;;;;;;;18.27;39.32;96538.44;5111978;28;20173;-71
2022/04/06 10:15:59;;;;;;;2.20;0.70;;;;;;;18.25;39.24;96534.38;5096203;28;20186;-72
2022/04/06 10:18:31;;;;;;;1.43;0.80;;;;;;;18.14;39.33;96535.94;5109482;28;20213;-72
2022/04/06 10:21:23;;;;;;;1.20;0.70;;;;;;;18.09;39.43;96527.81;5113883;27;20205;-72
2022/04/06 10:24:07;;;;;;;2.40;0.60;;;;;;;18.08;39.26;96532.28;5086099;28;20466;-71
2022/04/06 10:26:51;;;;;;;0.80;0.70;;;;;;;18.13;39.54;96518.41;5102436;28;20878;-70
2022/04/06 10:29:16;;;;;;;1.00;0.67;;;;;;;18.12;39.30;96522.06;5114398;28;20495;-70
2022/04/06 10:31:46;;;;;;;1.00;0.70;;;;;;;18.16;39.27;96512.63;5115094;28;20494;-70
2022/04/06 10:34:22;;;;;;;1.00;0.70;;;;;;;18.21;39.12;96510.16;5114212;28;20180;-72
2022/04/06 10:37:05;;;;;;;0.90;0.70;;;;;;;18.24;38.99;96499.13;5106383;28;20452;-71
2022/04/06 10:39:31;;;;;;;1.10;0.60;;;;;;;18.62;38.93;96505.25;5113763;28;20517;-71
2022/04/06 10:42:27;;;;;;;0.97;0.60;;;;;;;18.87;37.63;96507.84;5100979;28;20481;-71
2022/04/06 10:44:53;;;;;;;6.20;0.70;;;;;;;19.44;36.83;96501.41;5108873;28;20492;-70
2022/04/06 10:47:19;;;;;;;0.97;0.80;;;;;;;19.49;35.93;96492.75;5114840;28;20434;-69
2022/04/06 10:50:19;;;;;;;0.90;0.70;;;;;;;19.63;36.37;96472.94;5101255;28;20177;-70
2022/04/06 10:52:44;;;;;;;2.17;0.90;;;;;;;19.58;36.16;96475.47;5122070;27;20946;-70
2022/04/06 10:55:14;;;;;;;1.53;1.00;;;;;;;19.45;36.25;96481.78;5115390;28;20426;-70
2022/04/06 10:58:01;;;;;;;1.40;0.70;;;;;;;19.53;36.84;96478.00;5096657;28;20565;-70
2022/04/06 11:00:28;;;;;;;1.67;0.80;;;;;;;19.55;36.52;96464.47;5114717;28;20435;-70
2022/04/06 11:02:53;;;;;;;1.20;0.70;;;;;;;19.83;36.79;96460.38;5115349;28;20454;-71
2022/04/06 11:05:52;;;;;;;1.53;0.50;;;;;;;20.07;35.97;96467.34;5115489;27;20461;-70
2022/04/06 11:11:46;;;;;;;0.90;0.70;;;;;;;20.95;35.45;96455.91;5115406;28;20419;-71
2022/04/06 11:14:23;;;;;;;1.70;0.83;;;;;;;20.99;33.82;96457.06;5115457;28;20427;-71
2022/04/06 11:16:48;;;;;;;1.00;0.70;;;;;;;20.95;33.50;96442.59;5100795;28;20442;-70
2022/04/06 11:19:14;;;;;;;1.67;0.60;;;;;;;21.23;32.88;96440.97;5110645;28;20423;-70
2022/04/06 11:21:51;;;;;;;1.87;0.80;;;;;;;21.59;33.17;96427.44;5114698;28;20213;-70
2022/04/06 11:24:27;;;;;;;1.10;0.60;;;;;;;21.75;32.06;96425.84;5114544;28;20284;-70
2022/04/06 11:26:53;;;;;;;1.10;0.70;;;;;;;21.74;31.62;96424.25;5114593;28;20962;-70
2022/04/06 11:29:24;;;;;;;1.40;0.60;;;;;;;21.79;32.06;96416.34;5096163;28;20770;-71
2022/04/06 11:31:57;;;;;;;0.90;0.60;;;;;;;22.04;31.66;96413.22;5114362;28;20500;-70
2022/04/06 11:34:39;;;;;;;0.90;0.70;;;;;;;21.96;32.01;96415.50;5114478;28;20472;-70
2022/04/06 11:37:06;;;;;;;1.43;0.80;;;;;;;21.45;32.09;96413.63;5114337;28;20468;-70
2022/04/06 11:39:32;;;;;;;1.00;0.70;;;;;;;21.50;32.08;96408.38;5114530;27;20434;-70
2022/04/06 11:42:03;;;;;;;0.90;0.70;;;;;;;21.33;31.93;96409.16;5114247;28;20937;-70